Time;durP1;ratioP1;P1;durP2;ratioP2;P2;SDS_P1;SDS_P2;PMS_P1;PMS_P2;Temp;Humidity;BMP_temperature;BMP_pressure;BME280_temperature;BME280_humidity;BME280_pressure;Samples;Min_cycle;Max_cycle;Signal;HPM_P1;HPM_P2
2021/01/14 00:00:33;;;;;;;7.55;5.00;;;;;;;3.14;89.45;98536.22;4877455;29;20483;-72
2021/01/14 00:03:00;;;;;;;5.18;4.53;;;;;;;3.15;89.60;98548.22;4877627;29;20766;-72
2021/01/14 00:05:25;;;;;;;4.78;4.13;;;;;;;3.10;89.32;98549.88;4877547;29;20663;-72
2021/01/14 00:07:53;;;;;;;5.40;4.65;;;;;;;3.16;89.10;98549.06;4877575;29;20036;-71
2021/01/14 00:10:19;;;;;;;4.60;4.10;;;;;;;3.19;88.89;98559.31;4877207;29;20727;-72
2021/01/14 00:12:45;;;;;;;4.60;4.20;;;;;;;3.12;88.89;98578.91;4880396;29;20025;-72
2021/01/14 00:15:12;;;;;;;6.15;4.40;;;;;;;3.11;88.47;98572.06;4895873;29;20028;-72
2021/01/14 00:17:37;;;;;;;6.22;4.13;;;;;;;3.12;87.57;98573.78;4897327;29;20043;-71
2021/01/14 00:20:09;;;;;;;4.10;3.70;;;;;;;2.99;87.82;98564.28;4897142;29;20021;-72
2021/01/14 00:22:35;;;;;;;5.13;3.88;;;;;;;3.06;87.49;98576.28;4897282;29;20036;-72
2021/01/14 00:25:00;;;;;;;7.50;3.83;;;;;;;3.16;86.56;98570.41;4897173;29;20123;-72
2021/01/14 00:27:25;;;;;;;4.30;3.88;;;;;;;2.97;87.52;98589.00;4897338;29;20028;-72
2021/01/14 00:29:51;;;;;;;4.43;4.00;;;;;;;2.81;88.36;98578.63;4897115;29;20493;-72
2021/01/14 00:32:16;;;;;;;5.95;4.07;;;;;;;3.02;87.05;98577.09;4897059;29;20032;-72
2021/01/14 00:34:41;;;;;;;4.70;4.15;;;;;;;3.16;86.63;98580.63;4897198;29;20027;-72
2021/01/14 00:39:56;;;;;;;4.15;3.58;;;;;;;2.99;87.46;98610.34;4897507;29;20055;-72
2021/01/14 00:42:21;;;;;;;4.28;3.70;;;;;;;3.00;86.95;98614.63;4896803;29;20466;-72
2021/01/14 00:44:47;;;;;;;4.45;3.90;;;;;;;2.84;87.29;98599.09;4896915;29;20115;-72
2021/01/14 00:47:12;;;;;;;3.80;3.47;;;;;;;3.06;86.34;98597.63;4896982;29;20060;-72
2021/01/14 00:49:37;;;;;;;5.20;3.67;;;;;;;3.13;86.47;98590.00;4897062;29;20550;-72
2021/01/14 00:52:03;;;;;;;4.40;3.80;;;;;;;2.97;86.81;98584.75;4896845;29;20028;-72
2021/01/14 00:54:29;;;;;;;3.83;3.53;;;;;;;3.00;86.73;98576.25;4896923;29;20056;-72
2021/01/14 00:56:54;;;;;;;4.10;3.70;;;;;;;3.00;86.54;98586.47;4897052;29;20048;-72
2021/01/14 00:59:19;;;;;;;4.13;3.72;;;;;;;2.81;87.40;98614.44;4896961;29;20028;-72
2021/01/14 07:00:49;;;;;;;10.90;6.25;;;;;;;1.38;91.23;98868.69;5714224;23;20372;-69
2021/01/14 07:03:18;;;;;;;14.50;10.38;;;;;;;1.37;91.18;98866.97;4898748;29;20045;-69
2021/01/14 07:05:52;;;;;;;13.07;7.97;;;;;;;1.32;91.21;98868.56;4900857;29;20461;-69
2021/01/14 07:08:39;;;;;;;11.98;8.73;;;;;;;1.45;90.79;98870.53;4901978;29;20025;-69
2021/01/14 07:11:12;;;;;;;12.55;10.73;;;;;;;1.28;91.13;98888.03;4892085;29;20104;-70
2021/01/14 07:13:48;;;;;;;9.60;7.90;;;;;;;1.38;90.95;98888.25;4890192;29;20036;-69
2021/01/14 07:16:16;;;;;;;9.18;7.63;;;;;;;1.22;91.35;98877.72;4884030;29;20072;-70
2021/01/14 07:18:43;;;;;;;11.45;7.63;;;;;;;1.42;91.09;98864.50;4895127;29;20028;-69
2021/01/14 07:21:09;;;;;;;13.50;7.40;;;;;;;1.49;90.60;98886.75;4886099;29;20461;-69
2021/01/14 07:23:54;;;;;;;9.35;7.20;;;;;;;1.46;90.43;98879.06;4898231;29;20107;-70
2021/01/14 07:26:22;;;;;;;18.85;10.25;;;;;;;1.37;90.27;98892.50;4892033;29;20054;-69
2021/01/14 07:28:47;;;;;;;14.07;8.02;;;;;;;1.29;90.59;98884.66;4886051;29;20108;-69
2021/01/14 07:31:22;;;;;;;11.15;7.38;;;;;;;1.43;90.72;98886.63;4897801;29;20625;-69
2021/01/14 07:33:48;;;;;;;13.85;9.00;;;;;;;1.34;90.74;98896.66;4886684;29;20029;-69
2021/01/14 07:36:20;;;;;;;12.65;7.75;;;;;;;1.49;90.08;98902.94;4894345;29;20039;-69
2021/01/14 07:38:47;;;;;;;16.42;8.43;;;;;;;1.48;89.98;98905.47;4868075;29;20024;-69
2021/01/14 07:41:13;;;;;;;14.00;9.00;;;;;;;1.41;90.11;98903.63;4890643;29;20045;-69
2021/01/14 07:43:38;;;;;;;16.85;9.00;;;;;;;1.47;90.32;98919.91;4889583;29;20060;-69
2021/01/14 07:46:20;;;;;;;10.70;7.28;;;;;;;1.45;90.13;98918.16;4884202;29;20033;-69
2021/01/14 07:48:45;;;;;;;15.38;9.82;;;;;;;1.36;89.83;98913.75;4882819;29;20024;-69
2021/01/14 07:51:11;;;;;;;16.10;9.30;;;;;;;1.56;89.46;98913.28;4883736;29;20029;-69
2021/01/14 07:53:36;;;;;;;11.00;8.07;;;;;;;1.46;90.00;98922.44;4895734;29;20558;-69
2021/01/14 07:56:21;;;;;;;11.20;8.07;;;;;;;1.32;89.74;98918.75;4884275;29;20077;-70
2021/01/14 07:58:49;;;;;;;14.55;7.95;;;;;;;1.48;89.50;98913.13;4867945;29;20028;-69
2021/01/14 08:01:14;;;;;;;9.43;7.28;;;;;;;1.48;89.28;98920.78;4890032;29;20021;-69
2021/01/14 08:03:41;;;;;;;13.80;8.02;;;;;;;1.47;89.82;98919.06;4889499;29;20450;-69
2021/01/14 08:06:22;;;;;;;14.70;8.43;;;;;;;1.41;90.01;98924.06;4883702;29;20055;-70
2021/01/14 08:09:07;;;;;;;15.68;9.05;;;;;;;1.34;90.41;98927.28;4892307;29;20033;-70
2021/01/14 08:11:33;;;;;;;18.85;10.77;;;;;;;1.44;91.15;98941.97;4886884;29;20028;-70
2021/01/14 08:14:33;;;;;;;22.35;11.23;;;;;;;1.38;91.74;98944.41;4887637;29;20033;-70
2021/01/14 08:17:01;;;;;;;17.23;9.98;;;;;;;1.37;91.38;98948.66;4877397;29;20074;-69
2021/01/14 08:19:31;;;;;;;15.93;8.35;;;;;;;1.45;91.01;98953.88;4865469;29;20053;-70
2021/01/14 08:21:59;;;;;;;;;;;;;;;1.80;89.66;98949.53;4873107;29;20436;-70
2021/01/14 08:24:39;;;;;;;11.10;8.20;;;;;;;1.69;88.69;98951.88;4862109;29;19912;-69
2021/01/14 08:27:06;;;;;;;16.95;9.02;;;;;;;1.57;89.20;98946.50;4866265;29;20029;-69
2021/01/14 08:29:54;;;;;;;16.85;8.50;;;;;;;1.70;89.54;98956.13;4869091;29;20044;-69
2021/01/14 08:32:33;;;;;;;11.85;8.38;;;;;;;1.37;91.22;98960.53;4874919;29;20045;-69
2021/01/14 08:35:17;;;;;;;16.02;9.07;;;;;;;1.51;90.47;98961.69;4873103;29;20026;-70
2021/01/14 08:38:12;;;;;;;10.98;8.32;;;;;;;1.62;89.25;98952.56;4870852;29;20029;-70
2021/01/14 08:40:38;;;;;;;12.13;7.82;;;;;;;1.87;88.58;98958.16;4862760;29;20033;-70
2021/01/14 08:43:18;;;;;;;9.80;7.63;;;;;;;1.80;88.37;98969.97;4872047;29;20056;-70
2021/01/14 08:45:46;;;;;;;11.10;7.78;;;;;;;1.68;88.76;98970.56;4870681;29;20029;-69
2021/01/14 08:48:22;;;;;;;9.50;7.78;;;;;;;1.67;88.49;98980.75;4878312;29;20048;-69
2021/01/14 08:50:54;;;;;;;13.10;9.90;;;;;;;1.77;88.79;98991.19;4859317;29;20017;-70
2021/01/14 08:53:23;;;;;;;13.20;8.65;;;;;;;1.85;88.28;98987.94;4868111;29;20039;-69
2021/01/14 08:56:00;;;;;;;12.73;9.68;;;;;;;1.74;88.61;98980.91;4866363;29;20044;-69
2021/01/14 08:58:45;;;;;;;13.10;9.05;;;;;;;1.91;88.01;98983.78;4874969;29;20104;-69
2021/01/14 09:01:18;;;;;;;16.58;9.98;;;;;;;1.67;88.40;98984.16;4866158;29;20037;-69
2021/01/14 09:03:47;;;;;;;25.25;13.20;;;;;;;1.71;88.94;98991.06;4866517;29;20026;-70
2021/01/14 09:06:16;;;;;;;14.68;10.27;;;;;;;1.71;89.19;98985.09;4859476;29;20069;-70
2021/01/14 09:08:41;;;;;;;17.40;9.97;;;;;;;1.76;88.88;98986.91;4874722;29;20044;-70
2021/01/14 09:11:07;;;;;;;20.00;11.20;;;;;;;1.74;88.85;98980.91;4865748;29;20463;-69
2021/01/14 09:13:33;;;;;;;16.88;9.30;;;;;;;1.82;88.98;98985.31;4866039;29;20038;-69
2021/01/14 09:16:09;;;;;;;14.75;9.70;;;;;;;1.87;88.33;98991.38;4867332;29;20033;-69
2021/01/14 09:18:40;;;;;;;11.18;8.93;;;;;;;1.71;88.27;98996.16;4861519;29;20543;-69
2021/01/14 09:21:06;;;;;;;17.35;11.73;;;;;;;1.68;89.62;99006.31;4877823;29;20108;-69
2021/01/14 09:23:35;;;;;;;13.43;9.43;;;;;;;1.94;88.02;99013.66;4871549;29;20476;-69
2021/01/14 09:26:09;;;;;;;18.52;9.43;;;;;;;2.04;87.58;99015.56;4876245;29;20033;-69
2021/01/14 09:28:34;;;;;;;17.42;8.68;;;;;;;2.14;86.78;99012.34;4865403;29;20100;-69
2021/01/14 09:31:04;;;;;;;11.82;8.63;;;;;;;2.01;87.34;99010.38;4874258;29;20064;-70
2021/01/14 09:33:32;;;;;;;13.52;8.65;;;;;;;2.01;87.38;99015.50;4872186;29;20388;-69
2021/01/14 09:35:59;;;;;;;10.30;8.20;;;;;;;2.09;87.15;99023.31;4868703;29;20120;-69
2021/01/14 09:38:26;;;;;;;12.82;8.43;;;;;;;2.11;87.71;99024.22;4880732;29;20039;-69
2021/01/14 09:40:55;;;;;;;11.85;8.27;;;;;;;2.13;87.14;99040.41;4866955;29;20032;-70
2021/01/14 09:43:23;;;;;;;14.95;9.02;;;;;;;2.24;86.71;99038.94;4873465;29;20036;-69
2021/01/14 09:45:49;;;;;;;14.00;10.05;;;;;;;2.37;86.68;99034.91;4872811;29;20116;-71
2021/01/14 09:48:15;;;;;;;18.60;9.07;;;;;;;2.33;86.20;99045.94;4877864;29;20061;-69
2021/01/14 09:50:40;;;;;;;16.27;9.70;;;;;;;2.42;86.74;99053.75;4865660;29;20020;-69
2021/01/14 09:53:09;;;;;;;12.25;8.73;;;;;;;2.37;85.69;99050.25;4881136;29;20032;-70
2021/01/14 09:55:35;;;;;;;16.98;9.85;;;;;;;2.20;86.17;99053.38;4871294;29;20025;-69
2021/01/14 09:58:02;;;;;;;14.45;9.45;;;;;;;2.44;85.86;99057.22;4875714;29;20112;-70
2021/01/14 10:00:29;;;;;;;12.93;8.80;;;;;;;2.40;85.16;99047.78;4865373;29;20025;-69
2021/01/14 10:03:03;;;;;;;17.52;9.85;;;;;;;2.37;85.82;99046.03;4868621;29;20033;-69
2021/01/14 10:05:30;;;;;;;15.35;9.85;;;;;;;2.41;85.57;99052.03;4871733;29;20510;-70
2021/01/14 10:08:01;;;;;;;16.90;9.57;;;;;;;2.63;84.68;99061.84;4868114;29;20442;-70
2021/01/14 10:10:29;;;;;;;13.25;9.57;;;;;;;2.49;85.85;99066.69;4867582;29;20039;-70
2021/01/14 10:12:55;;;;;;;15.75;8.75;;;;;;;2.68;85.01;99067.91;4866934;29;20040;-70
2021/01/14 10:15:21;;;;;;;13.85;9.20;;;;;;;2.54;84.50;99059.97;4875755;29;20029;-70
2021/01/14 10:17:46;;;;;;;15.20;8.18;;;;;;;2.49;84.47;99063.28;4869499;29;20029;-70
2021/01/14 10:20:13;;;;;;;15.35;8.90;;;;;;;2.40;84.31;99060.56;4874773;29;20501;-70
2021/01/14 10:22:52;;;;;;;14.07;8.52;;;;;;;2.30;85.14;99062.94;4851649;29;20119;-69
2021/01/14 10:25:19;;;;;;;13.05;9.00;;;;;;;2.41;85.20;99069.94;4842361;29;20401;-70
2021/01/14 10:28:01;;;;;;;11.18;8.18;;;;;;;2.63;83.68;99063.53;4842603;29;20108;-70
2021/01/14 10:30:27;;;;;;;17.02;8.45;;;;;;;2.12;84.90;99064.25;4841769;29;21526;-70
2021/01/14 10:33:03;;;;;;;16.27;8.43;;;;;;;2.76;82.89;99071.47;4842420;29;20033;-70
2021/01/14 10:35:30;;;;;;;13.93;8.77;;;;;;;2.48;83.15;99079.47;4841515;29;20053;-70
2021/01/14 10:38:15;;;;;;;15.23;7.50;;;;;;;2.14;83.74;99083.91;4842002;29;20033;-70
2021/01/14 10:40:45;;;;;;;8.55;6.47;;;;;;;2.55;81.64;99078.75;4841348;29;20037;-70
2021/01/14 10:43:14;;;;;;;10.73;5.68;;;;;;;2.14;80.40;99083.91;4842192;29;20613;-69
2021/01/14 10:45:40;;;;;;;6.93;5.67;;;;;;;2.63;79.35;99089.97;4838596;29;20513;-69
2021/01/14 10:48:17;;;;;;;14.85;6.43;;;;;;;2.65;79.47;99093.41;4839375;29;20287;-71
2021/01/14 10:50:54;;;;;;;14.40;6.25;;;;;;;2.16;80.74;99091.59;4841471;29;20843;-71
2021/01/14 10:53:33;;;;;;;13.02;6.80;;;;;;;1.98;82.88;99097.19;4841561;29;20061;-71
2021/01/14 10:56:07;;;;;;;8.95;5.63;;;;;;;2.02;81.79;99096.44;4841989;29;20068;-71
2021/01/14 10:58:33;;;;;;;11.25;6.10;;;;;;;2.43;80.78;99091.31;4839203;29;20080;-71
2021/01/14 11:00:59;;;;;;;13.02;5.97;;;;;;;1.78;81.03;99095.06;4841007;29;20543;-71
2021/01/14 11:03:26;;;;;;;10.88;5.93;;;;;;;1.90;81.10;99096.19;4841645;29;20045;-71
2021/01/14 11:05:59;;;;;;;12.13;6.60;;;;;;;1.92;81.33;99086.84;4840968;29;20029;-71
2021/01/14 11:08:27;;;;;;;16.17;7.00;;;;;;;1.71;81.80;99094.91;4841651;29;20036;-71
2021/01/14 11:11:07;;;;;;;18.25;6.68;;;;;;;1.76;82.45;99095.88;4841462;29;20026;-71
2021/01/14 11:13:36;;;;;;;16.80;6.47;;;;;;;1.75;81.49;99089.91;4841241;29;20033;-71
2021/01/14 11:16:02;;;;;;;14.17;5.97;;;;;;;1.79;79.32;99081.50;4841022;29;20089;-71
2021/01/14 11:18:27;;;;;;;9.98;5.35;;;;;;;1.89;80.28;99074.03;4840583;29;20118;-71
2021/01/14 11:20:53;;;;;;;13.95;6.40;;;;;;;1.68;80.57;99069.28;4841161;29;20105;-71
2021/01/14 11:23:18;;;;;;;13.15;6.10;;;;;;;2.11;79.98;99058.28;4841121;29;20156;-71
2021/01/14 11:25:43;;;;;;;13.13;6.70;;;;;;;2.20;79.02;99070.41;4840979;29;20034;-71
2021/01/14 11:28:09;;;;;;;13.18;5.80;;;;;;;2.62;77.93;99061.84;4841364;29;20048;-71
2021/01/14 11:30:34;;;;;;;13.00;6.05;;;;;;;1.86;79.25;99068.84;4840932;29;20117;-71
2021/01/14 11:32:59;;;;;;;10.68;4.80;;;;;;;1.80;79.22;99072.13;4840796;29;20054;-71
2021/01/14 11:35:25;;;;;;;11.95;5.82;;;;;;;2.24;79.23;99077.28;4839810;29;20029;-71
2021/01/14 11:37:50;;;;;;;10.98;5.35;;;;;;;2.42;78.46;99069.09;4841096;29;20089;-71
2021/01/14 11:40:16;;;;;;;15.88;6.30;;;;;;;2.62;77.39;99067.81;4841445;29;20064;-71
2021/01/14 11:42:41;;;;;;;13.32;6.55;;;;;;;2.92;76.55;99069.19;4840509;29;20058;-71
2021/01/14 11:45:07;;;;;;;8.18;5.45;;;;;;;2.28;78.63;99077.38;4841301;29;20033;-71
2021/01/14 11:47:32;;;;;;;10.35;5.47;;;;;;;2.79;76.90;99071.50;4840537;29;20029;-71
2021/01/14 11:49:58;;;;;;;8.38;5.00;;;;;;;2.88;77.66;99069.97;4840703;29;20052;-70
2021/01/14 11:52:23;;;;;;;11.35;4.93;;;;;;;2.96;77.83;99070.97;4840594;29;20048;-69
2021/01/14 11:54:49;;;;;;;9.23;5.38;;;;;;;2.96;75.31;99068.41;4840708;29;20062;-69
2021/01/14 11:57:15;;;;;;;8.93;5.03;;;;;;;2.92;77.30;99071.75;4840811;29;20396;-69
2021/01/14 11:59:40;;;;;;;10.68;5.10;;;;;;;2.93;75.07;99064.06;4840671;29;20068;-69
2021/01/14 12:02:06;;;;;;;16.27;5.78;;;;;;;2.93;74.08;99063.22;4840426;29;20046;-69
2021/01/14 12:04:32;;;;;;;11.25;6.35;;;;;;;2.94;74.49;99064.94;4840885;29;20049;-69
2021/01/14 12:06:57;;;;;;;14.30;5.43;;;;;;;3.01;75.51;99057.41;4840477;29;20038;-69
2021/01/14 12:09:22;;;;;;;9.00;4.47;;;;;;;3.12;74.09;99060.13;4840381;29;20242;-69
2021/01/14 12:11:52;;;;;;;12.95;6.38;;;;;;;2.98;75.32;99061.59;4840330;29;20029;-71
2021/01/14 12:14:18;;;;;;;9.45;4.90;;;;;;;2.96;74.72;99053.03;4840547;29;20037;-72
2021/01/14 12:16:43;;;;;;;8.88;4.82;;;;;;;2.97;76.65;99055.63;4840159;29;20032;-71
2021/01/14 12:19:08;;;;;;;8.40;4.97;;;;;;;2.94;73.75;99062.38;4840385;29;20046;-71
2021/01/14 12:21:34;;;;;;;11.77;5.30;;;;;;;2.72;74.60;99056.91;4840147;29;20122;-71
2021/01/14 12:23:59;;;;;;;12.57;5.70;;;;;;;2.51;76.16;99048.81;4840369;29;20109;-71
2021/01/14 12:26:25;;;;;;;11.90;6.00;;;;;;;2.88;76.52;99052.03;4854290;29;20034;-72
2021/01/14 12:28:50;;;;;;;9.05;6.38;;;;;;;3.00;76.46;99047.16;4840158;29;20073;-71
2021/01/14 12:31:15;;;;;;;14.60;6.45;;;;;;;2.83;76.53;99046.84;4839888;29;20112;-72
2021/01/14 12:33:41;;;;;;;9.07;5.57;;;;;;;2.55;76.43;99041.22;4840153;29;20037;-71
2021/01/14 12:36:06;;;;;;;10.25;6.22;;;;;;;1.98;76.89;99040.97;4839986;29;20057;-71
2021/01/14 12:38:32;;;;;;;15.57;5.63;;;;;;;1.91;77.30;99031.47;4840111;29;20438;-71
2021/01/14 12:40:57;;;;;;;15.57;6.25;;;;;;;2.16;78.57;99033.69;4839894;29;20029;-71
2021/01/14 12:43:23;;;;;;;10.63;6.05;;;;;;;2.11;77.90;99044.66;4840059;29;20034;-71
2021/01/14 12:45:51;;;;;;;9.80;4.75;;;;;;;2.38;77.06;99032.41;4840117;29;20078;-71
2021/01/14 12:48:18;;;;;;;10.63;4.93;;;;;;;2.86;74.46;99030.69;4840180;29;20685;-71
2021/01/14 12:50:43;;;;;;;11.23;5.20;;;;;;;2.93;75.87;99037.63;4839456;29;20030;-71
2021/01/14 12:53:09;;;;;;;20.90;7.13;;;;;;;3.03;75.36;99042.06;4840131;29;20045;-72
2021/01/14 12:55:36;;;;;;;12.50;6.70;;;;;;;2.34;75.85;99047.66;4840208;29;20045;-72
2021/01/14 12:58:01;;;;;;;13.13;6.38;;;;;;;2.34;76.42;99045.97;4839817;29;20041;-71
2021/01/14 13:00:27;;;;;;;14.40;6.32;;;;;;;2.52;74.88;99046.31;4839226;29;20488;-71
2021/01/14 13:02:52;;;;;;;12.65;7.07;;;;;;;2.35;76.64;99051.94;4839869;29;20056;-71
2021/01/14 13:05:19;;;;;;;17.10;5.70;;;;;;;2.64;75.08;99035.44;4839843;29;20033;-71
2021/01/14 13:07:44;;;;;;;9.60;5.53;;;;;;;2.97;74.89;99040.25;4839583;29;20034;-71
2021/01/14 13:10:10;;;;;;;11.65;4.55;;;;;;;2.99;73.56;99042.84;4837962;29;20076;-71
2021/01/14 13:12:36;;;;;;;9.60;5.72;;;;;;;2.83;74.42;99042.59;4839660;29;20041;-71
2021/01/14 13:15:02;;;;;;;14.57;5.30;;;;;;;2.67;76.18;99035.50;4840030;29;20038;-71
2021/01/14 13:17:27;;;;;;;12.98;6.15;;;;;;;2.85;73.83;99027.25;4840493;29;20044;-71
2021/01/14 13:19:53;;;;;;;12.85;5.82;;;;;;;2.71;74.51;99028.75;4839622;29;20037;-71
2021/01/14 13:22:18;;;;;;;12.73;5.43;;;;;;;2.73;75.83;99027.91;4839053;29;20030;-71
2021/01/14 13:24:43;;;;;;;11.18;5.13;;;;;;;2.73;74.63;99020.25;4839517;29;20487;-73
2021/01/14 13:27:09;;;;;;;17.15;5.82;;;;;;;2.74;74.78;99021.09;4839837;29;20030;-71
2021/01/14 13:29:34;;;;;;;38.10;14.93;;;;;;;2.51;73.75;99025.81;4839207;29;20401;-72
2021/01/14 13:31:59;;;;;;;13.52;5.93;;;;;;;2.50;74.38;99029.19;4839317;29;20052;-71
2021/01/14 13:34:25;;;;;;;11.82;5.88;;;;;;;2.47;75.22;99022.34;4839674;29;20042;-71
2021/01/14 13:36:51;;;;;;;22.23;8.90;;;;;;;2.63;74.46;99014.94;4837464;29;20049;-71
2021/01/14 13:39:17;;;;;;;11.45;5.25;;;;;;;2.55;73.14;99019.91;4839803;29;20034;-71
2021/01/14 13:41:48;;;;;;;9.45;5.45;;;;;;;2.62;74.69;99020.91;4853278;29;20032;-71
2021/01/14 13:44:13;;;;;;;11.48;6.38;;;;;;;2.51;73.78;99018.13;4839575;29;20408;-71
2021/01/14 13:46:39;;;;;;;30.23;11.30;;;;;;;2.42;73.71;99023.06;4837698;29;20037;-71
2021/01/14 13:49:05;;;;;;;16.05;7.22;;;;;;;2.26;74.71;99025.34;4838130;29;20033;-71
2021/01/14 13:51:42;;;;;;;12.75;7.15;;;;;;;2.42;75.46;99028.19;4838787;29;20025;-71
2021/01/14 13:54:10;;;;;;;15.60;6.93;;;;;;;2.44;75.76;99031.66;4839469;29;20052;-71
2021/01/14 13:56:36;;;;;;;18.30;9.85;;;;;;;2.40;75.73;99030.72;4839622;29;20037;-71
2021/01/14 13:59:05;;;;;;;103.75;38.67;;;;;;;2.42;75.44;99030.75;4839545;29;20105;-71
2021/01/14 14:01:31;;;;;;;14.63;7.80;;;;;;;2.33;76.11;99028.06;4839279;29;20048;-71
2021/01/14 14:03:58;;;;;;;19.33;8.43;;;;;;;2.35;76.68;99031.47;4839131;29;20042;-71
2021/01/14 14:06:30;;;;;;;18.30;10.40;;;;;;;2.31;76.08;99031.41;4839124;29;20033;-71
2021/01/14 14:08:56;;;;;;;15.70;8.73;;;;;;;2.26;76.70;99027.91;4838209;29;20037;-71
2021/01/14 14:11:22;;;;;;;12.15;7.43;;;;;;;2.16;77.22;99028.56;4840259;29;20033;-71
2021/01/14 14:13:47;;;;;;;12.45;6.28;;;;;;;2.23;77.88;99024.47;4838791;29;20038;-71
2021/01/14 14:16:16;;;;;;;14.30;6.38;;;;;;;1.95;78.06;99036.69;4842464;29;20034;-71
2021/01/14 14:18:42;;;;;;;9.27;6.38;;;;;;;1.76;78.43;99035.44;4842655;29;20057;-71
2021/01/14 14:21:08;;;;;;;11.10;6.10;;;;;;;1.60;79.18;99038.50;4842478;29;20433;-71
2021/01/14 14:23:34;;;;;;;13.15;6.88;;;;;;;1.71;78.97;99037.03;4842729;29;20065;-71
2021/01/14 14:25:59;;;;;;;16.35;6.95;;;;;;;1.66;78.88;99038.63;4842163;29;20121;-71
2021/01/14 14:28:24;;;;;;;9.00;5.53;;;;;;;1.60;78.52;99038.50;4842492;29;20411;-71
2021/01/14 14:30:50;;;;;;;9.23;5.68;;;;;;;1.63;79.66;99038.53;4841783;29;20041;-71
2021/01/14 14:33:15;;;;;;;15.13;6.45;;;;;;;1.47;79.27;99031.38;4841556;29;21243;-71
2021/01/14 14:35:41;;;;;;;14.40;7.10;;;;;;;1.70;79.23;99024.25;4842450;29;20459;-71
2021/01/14 14:38:06;;;;;;;11.93;6.05;;;;;;;1.71;79.34;99039.59;4841527;29;20492;-71
2021/01/14 14:40:31;;;;;;;11.68;6.35;;;;;;;1.53;79.83;99036.63;4842227;29;20101;-71
2021/01/14 14:42:57;;;;;;;12.20;5.43;;;;;;;1.69;80.13;99033.59;4842106;29;20033;-71
2021/01/14 14:45:22;;;;;;;15.93;7.47;;;;;;;1.49;79.86;99045.03;4842053;29;20554;-71
2021/01/14 14:47:47;;;;;;;9.75;5.93;;;;;;;1.36;80.04;99053.28;4841794;29;20046;-71
2021/01/14 14:50:13;;;;;;;7.75;5.15;;;;;;;1.53;79.96;99047.69;4841901;29;20468;-71
2021/01/14 14:52:38;;;;;;;19.38;9.65;;;;;;;1.54;80.40;99054.53;4842013;29;20563;-71
2021/01/14 14:55:04;;;;;;;9.35;5.68;;;;;;;1.59;80.61;99041.84;4854890;29;20065;-71
2021/01/14 14:57:30;;;;;;;13.43;6.40;;;;;;;1.59;80.99;99041.84;4840371;29;20491;-71
2021/01/14 14:59:55;;;;;;;9.73;5.50;;;;;;;1.50;80.49;99046.78;4841515;29;20097;-71
2021/01/14 15:02:20;;;;;;;9.02;5.00;;;;;;;1.44;80.14;99046.63;4841173;29;20096;-71
2021/01/14 15:04:45;;;;;;;9.27;5.93;;;;;;;1.14;81.25;99047.66;4840990;29;20040;-71
2021/01/14 15:07:11;;;;;;;10.30;5.95;;;;;;;1.31;80.48;99039.53;4841214;29;20496;-71
2021/01/14 15:09:37;;;;;;;11.57;6.53;;;;;;;1.34;81.79;99042.16;4841485;29;20147;-71
2021/01/14 15:12:02;;;;;;;6.97;5.28;;;;;;;1.17;81.52;99052.84;4841606;29;20034;-71
2021/01/14 15:14:28;;;;;;;10.70;5.65;;;;;;;1.12;82.06;99054.41;4841521;29;20471;-71
2021/01/14 15:16:53;;;;;;;11.15;5.90;;;;;;;1.25;81.63;99061.50;4841111;29;20068;-71
2021/01/14 15:19:18;;;;;;;13.77;5.93;;;;;;;1.21;82.36;99054.63;4855363;29;20120;-71
2021/01/14 15:21:44;;;;;;;9.25;5.93;;;;;;;1.11;82.08;99057.78;4840797;29;20094;-71
2021/01/14 15:24:10;;;;;;;10.35;5.60;;;;;;;1.20;81.96;99052.03;4841644;29;20026;-71
2021/01/14 15:26:35;;;;;;;12.57;6.05;;;;;;;1.19;83.14;99056.28;4841362;29;20468;-71
2021/01/14 15:29:00;;;;;;;10.63;5.63;;;;;;;1.15;81.69;99061.25;4840314;29;20041;-69
2021/01/14 15:31:26;;;;;;;9.88;6.20;;;;;;;1.18;81.38;99059.66;4840313;29;20030;-69
2021/01/14 15:33:53;;;;;;;25.58;14.82;;;;;;;1.18;81.73;99054.56;4839173;29;20145;-71
2021/01/14 15:36:18;;;;;;;11.18;6.50;;;;;;;1.06;82.07;99044.03;4841241;29;20392;-71
2021/01/14 15:38:45;;;;;;;9.65;5.60;;;;;;;1.17;82.50;99052.84;4841097;29;20038;-71
2021/01/14 15:41:11;;;;;;;9.30;5.65;;;;;;;1.05;81.92;99042.31;4839337;29;20045;-71
2021/01/14 15:43:37;;;;;;;10.98;5.32;;;;;;;0.97;82.17;99041.28;4841010;29;20038;-71
2021/01/14 15:46:02;;;;;;;7.75;5.47;;;;;;;1.03;82.56;99038.88;4841045;29;20416;-71
2021/01/14 15:48:27;;;;;;;6.82;5.25;;;;;;;0.91;82.08;99041.13;4840866;29;20043;-71
2021/01/14 15:50:53;;;;;;;8.60;6.10;;;;;;;0.94;82.28;99043.75;4840527;29;20053;-71
2021/01/14 15:53:20;;;;;;;7.03;4.80;;;;;;;0.98;82.62;99040.47;4840481;29;20066;-71
2021/01/14 15:55:45;;;;;;;10.27;4.75;;;;;;;0.95;82.66;99050.59;4840825;29;20110;-71
2021/01/14 15:58:10;;;;;;;9.52;5.55;;;;;;;0.92;83.35;99040.28;4840628;29;20049;-71
2021/01/14 16:00:36;;;;;;;7.85;5.35;;;;;;;0.79;83.47;99043.38;4840543;29;20030;-71
2021/01/14 16:03:01;;;;;;;6.85;5.00;;;;;;;0.89;82.66;99046.19;4839565;29;20055;-71
2021/01/14 16:05:26;;;;;;;12.93;6.57;;;;;;;0.93;82.34;99042.03;4841195;29;20034;-71
2021/01/14 16:07:52;;;;;;;19.08;7.82;;;;;;;0.87;81.82;99047.88;4840641;29;20503;-71
2021/01/14 16:10:17;;;;;;;30.10;10.48;;;;;;;0.80;82.14;99055.31;4839557;29;20114;-71
2021/01/14 16:12:43;;;;;;;11.43;6.80;;;;;;;0.71;82.07;99045.72;4840277;29;20049;-72
2021/01/14 16:15:09;;;;;;;11.52;6.82;;;;;;;0.75;82.84;99058.59;4840161;29;20041;-71
2021/01/14 16:17:34;;;;;;;14.57;8.13;;;;;;;0.74;82.25;99059.44;4840279;29;21030;-71
2021/01/14 16:20:00;;;;;;;10.05;6.38;;;;;;;0.64;81.90;99054.91;4839850;29;20566;-72
2021/01/14 16:22:25;;;;;;;9.25;5.30;;;;;;;0.65;81.31;99046.44;4839273;29;20034;-73
2021/01/14 16:24:51;;;;;;;10.38;6.00;;;;;;;0.70;83.28;99044.88;4840439;29;20033;-72
2021/01/14 16:27:16;;;;;;;11.40;6.97;;;;;;;0.72;82.27;99047.44;4840439;29;20114;-71
2021/01/14 16:29:41;;;;;;;15.50;7.82;;;;;;;0.66;83.08;99048.16;4839891;29;20281;-71
2021/01/14 16:32:07;;;;;;;11.82;7.47;;;;;;;0.76;83.59;99042.47;4839323;29;20029;-71
2021/01/14 16:34:32;;;;;;;27.70;13.05;;;;;;;0.56;83.45;99041.09;4840466;29;20048;-71
2021/01/14 16:37:02;;;;;;;12.93;8.52;;;;;;;0.46;83.95;99044.25;4840563;29;20033;-72
2021/01/14 16:39:28;;;;;;;11.07;7.03;;;;;;;0.43;83.97;99039.06;4840228;29;20062;-71
2021/01/14 16:41:54;;;;;;;7.57;5.25;;;;;;;0.46;83.13;99034.03;4839978;29;20033;-71
2021/01/14 16:44:19;;;;;;;14.25;8.05;;;;;;;0.49;83.47;99029.03;4840043;29;20072;-71
2021/01/14 16:46:44;;;;;;;12.77;7.75;;;;;;;0.46;83.36;99028.94;4839797;29;20035;-71
2021/01/14 16:49:10;;;;;;;15.95;8.90;;;;;;;0.46;83.46;99034.03;4838383;29;20132;-72
2021/01/14 16:51:36;;;;;;;15.48;9.50;;;;;;;0.37;84.12;99038.91;4839741;29;20271;-72
2021/01/14 16:54:01;;;;;;;15.63;8.63;;;;;;;0.38;83.94;99032.97;4839939;29;20029;-72
2021/01/14 16:56:27;;;;;;;19.80;7.75;;;;;;;0.33;83.96;99030.28;4839867;29;20186;-72
2021/01/14 16:58:52;;;;;;;11.85;8.18;;;;;;;0.32;84.18;99030.25;4838865;29;20025;-72
2021/01/14 17:01:22;;;;;;;14.52;8.35;;;;;;;0.30;84.33;99027.69;4839260;29;20034;-72
2021/01/14 17:03:49;;;;;;;10.88;7.07;;;;;;;0.30;84.50;99029.38;4839942;29;20030;-72
2021/01/14 17:06:15;;;;;;;14.38;8.02;;;;;;;0.27;84.49;99026.72;4840078;29;20034;-72
2021/01/14 17:08:43;;;;;;;13.68;7.50;;;;;;;0.29;84.53;99015.78;4839941;29;20034;-72
2021/01/14 17:11:16;;;;;;;10.63;7.65;;;;;;;0.32;84.66;99012.44;4839299;29;20037;-73
2021/01/14 17:13:42;;;;;;;10.77;7.80;;;;;;;0.31;84.02;99013.25;4839761;29;20037;-73
2021/01/14 17:16:11;;;;;;;10.38;6.80;;;;;;;0.15;84.96;99012.84;4839667;29;20033;-73
2021/01/14 17:18:38;;;;;;;13.25;7.68;;;;;;;0.11;85.57;99005.94;4839590;29;20049;-73
2021/01/14 17:21:17;;;;;;;18.73;7.97;;;;;;;0.11;85.87;99000.00;4839224;29;20492;-73
2021/01/14 17:23:42;;;;;;;14.30;7.35;;;;;;;0.11;85.63;99000.84;4839643;29;20049;-70
2021/01/14 17:26:09;;;;;;;11.10;7.80;;;;;;;0.05;85.95;98998.16;4839255;29;20081;-70
2021/01/14 17:28:35;;;;;;;14.27;8.73;;;;;;;0.10;86.42;98993.19;4839867;29;20049;-70
2021/01/14 17:31:00;;;;;;;13.30;7.63;;;;;;;0.07;86.34;98986.31;4839394;29;20764;-71
2021/01/14 17:33:26;;;;;;;9.05;6.50;;;;;;;0.10;86.17;98983.84;4839687;29;20045;-71
2021/01/14 17:35:51;;;;;;;9.90;6.90;;;;;;;0.10;85.73;98988.09;4839369;29;20107;-71
2021/01/14 17:38:17;;;;;;;9.93;6.82;;;;;;;0.07;86.24;98983.75;4839789;29;20121;-72